Time;durP1;ratioP1;P1;durP2;ratioP2;P2;SDS_P1;SDS_P2;PMS_P1;PMS_P2;Temp;Humidity;BMP_temperature;BMP_pressure;BME280_temperature;BME280_humidity;BME280_pressure;Samples;Min_cycle;Max_cycle;Signal;HPM_P1;HPM_P2
2022/03/31 00:01:39;;;;;;;64.30;21.08;;;;;;;14.69;44.31;99444.47;5025496;28;20042;-74
2022/03/31 00:04:04;;;;;;;35.95;20.05;;;;;;;14.81;43.41;99460.84;5016908;28;20029;-74
2022/03/31 00:06:30;;;;;;;32.63;21.75;;;;;;;14.86;43.32;99445.69;5049165;28;20041;-74
2022/03/31 00:09:47;;;;;;;34.13;18.63;;;;;;;14.74;43.99;99453.09;5041611;28;20045;-74
2022/03/31 00:12:13;;;;;;;49.10;19.98;;;;;;;14.47;45.63;99440.75;5038709;28;20123;-75
2022/03/31 00:14:38;;;;;;;30.30;20.25;;;;;;;14.57;45.11;99448.38;5039001;28;20507;-75
2022/03/31 00:17:04;;;;;;;33.20;19.02;;;;;;;14.38;44.78;99447.19;5050360;28;20037;-75
2022/03/31 00:19:29;;;;;;;44.53;20.65;;;;;;;14.50;45.03;99430.09;5043166;28;20080;-76
2022/03/31 00:21:55;;;;;;;24.60;18.58;;;;;;;14.60;47.28;99435.97;5045495;28;20369;-75
2022/03/31 00:24:21;;;;;;;38.55;19.05;;;;;;;13.99;49.95;99401.78;5042366;28;20108;-76
2022/03/31 00:30:50;;;;;;;34.58;20.60;;;;;;;14.14;49.95;99415.38;5050924;28;20035;-77
2022/03/31 00:33:15;;;;;;;30.63;19.27;;;;;;;14.21;48.83;99404.63;5027651;28;20033;-75
2022/03/31 00:35:41;;;;;;;40.97;21.40;;;;;;;14.18;47.83;99399.44;5012217;28;20080;-75
2022/03/31 00:38:06;;;;;;;44.33;18.35;;;;;;;14.00;48.91;99393.84;5031398;28;20083;-75
2022/03/31 00:40:32;;;;;;;29.23;19.98;;;;;;;14.09;48.48;99412.03;5037182;28;20358;-75
2022/03/31 00:42:58;;;;;;;33.45;20.15;;;;;;;14.13;47.66;99408.34;5030025;28;20033;-75
2022/03/31 00:45:32;;;;;;;29.08;18.48;;;;;;;14.00;48.69;99399.13;5025184;28;20048;-75
2022/03/31 00:51:07;;;;;;;27.13;17.65;;;;;;;14.09;47.08;99390.91;5020349;28;20034;-75
2022/03/31 00:53:32;;;;;;;35.08;18.83;;;;;;;14.11;47.54;99390.84;5024439;28;20037;-75
2022/03/31 00:56:00;;;;;;;40.75;19.23;;;;;;;14.17;48.43;99410.91;5023629;28;20045;-76
2022/03/31 00:58:52;;;;;;;35.05;18.45;;;;;;;14.02;48.75;99402.53;5023445;28;20466;-76
2022/03/31 01:01:19;;;;;;;37.05;20.50;;;;;;;14.07;49.56;99391.84;5022779;28;20108;-75
2022/03/31 01:03:45;;;;;;;39.28;21.15;;;;;;;14.18;48.71;99402.94;5024316;28;20095;-75
2022/03/31 01:06:10;;;;;;;36.50;19.98;;;;;;;14.11;50.68;99399.63;5048041;28;20045;-75
2022/03/31 01:08:36;;;;;;;32.97;18.73;;;;;;;14.00;50.04;99391.19;5049374;28;20457;-76
2022/03/31 01:11:01;;;;;;;38.83;19.65;;;;;;;13.97;50.14;99393.06;5045300;28;20484;-75
2022/03/31 01:13:27;;;;;;;34.55;21.98;;;;;;;14.06;49.27;99358.47;5047852;28;20087;-75
2022/03/31 01:16:08;;;;;;;32.42;21.90;;;;;;;14.09;47.83;99366.28;5039938;28;20028;-75
2022/03/31 01:18:34;;;;;;;32.22;20.80;;;;;;;14.02;49.10;99354.19;5044047;28;20062;-75
2022/03/31 01:21:01;;;;;;;32.38;23.15;;;;;;;14.25;46.51;99345.56;5045937;28;20029;-75
2022/03/31 01:24:02;;;;;;;32.35;23.35;;;;;;;14.48;45.27;99348.31;5047800;28;20065;-75
2022/03/31 01:26:40;;;;;;;45.67;25.15;;;;;;;14.52;45.72;99357.00;5047125;28;20059;-75
2022/03/31 01:29:08;;;;;;;32.47;23.88;;;;;;;14.42;45.81;99361.72;5037594;28;20106;-76
2022/03/31 01:31:51;;;;;;;39.42;24.30;;;;;;;14.39;46.97;99374.16;5045823;28;20108;-76
2022/03/31 01:34:16;;;;;;;32.22;21.08;;;;;;;14.04;48.72;99378.75;5044882;28;20048;-74
2022/03/31 01:37:07;;;;;;;38.60;23.38;;;;;;;13.84;50.18;99387.28;5043720;28;20029;-74
2022/03/31 01:39:33;;;;;;;35.28;22.85;;;;;;;13.80;49.35;99383.00;5048054;28;20564;-76
2022/03/31 01:42:22;;;;;;;44.40;22.98;;;;;;;13.81;47.85;99393.50;5026763;28;20070;-76
2022/03/31 01:44:48;;;;;;;31.35;20.42;;;;;;;13.93;46.88;99400.22;5048332;28;20103;-76
2022/03/31 01:47:15;;;;;;;41.60;25.15;;;;;;;13.94;46.79;99400.16;5037786;28;20049;-76
2022/03/31 01:49:41;;;;;;;43.38;22.70;;;;;;;13.86;46.81;99401.28;5026838;28;20099;-76
2022/03/31 01:52:06;;;;;;;35.85;24.20;;;;;;;13.85;47.08;99395.16;5026514;28;22934;-76
2022/03/31 01:54:34;;;;;;;43.03;24.50;;;;;;;13.93;46.75;99398.44;5047364;28;20465;-76
2022/03/31 01:57:01;;;;;;;39.92;23.75;;;;;;;13.75;46.95;99379.66;5027744;28;20045;-76
2022/03/31 02:03:20;;;;;;;33.15;23.42;;;;;;;13.80;46.77;99386.50;5050823;28;20095;-76
2022/03/31 02:05:46;;;;;;;37.97;21.60;;;;;;;13.71;46.84;99385.00;5032284;28;20041;-76
2022/03/31 02:08:11;;;;;;;36.78;20.52;;;;;;;13.83;46.60;99382.91;5031927;28;20091;-76
2022/03/31 02:10:37;;;;;;;28.52;19.77;;;;;;;13.85;45.79;99371.41;5053982;28;20385;-76
2022/03/31 02:13:03;;;;;;;26.00;18.92;;;;;;;13.84;46.01;99367.06;5027070;28;20529;-76
2022/03/31 02:15:29;;;;;;;50.75;19.73;;;;;;;13.83;45.88;99372.38;5049718;28;20028;-77
2022/03/31 02:17:55;;;;;;;31.65;21.00;;;;;;;13.80;46.14;99365.41;5049112;28;20033;-76
2022/03/31 02:21:15;;;;;;;27.20;18.73;;;;;;;13.79;46.08;99371.63;5018653;28;20045;-76
2022/03/31 02:24:30;;;;;;;37.80;20.63;;;;;;;13.78;46.16;99363.75;5035388;28;20076;-76
2022/03/31 02:26:55;;;;;;;;;;;;;;;13.68;46.17;99368.44;5042772;28;20053;-76
2022/03/31 02:29:21;;;;;;;32.90;19.33;;;;;;;13.67;46.12;99358.78;5014558;28;19936;-76
2022/03/31 02:31:49;;;;;;;36.40;18.10;;;;;;;13.65;46.40;99342.13;5034941;28;20543;-76
2022/03/31 02:35:02;;;;;;;32.78;17.73;;;;;;;13.71;46.37;99340.19;5043681;28;20044;-76
2022/03/31 02:37:39;;;;;;;35.90;18.35;;;;;;;13.69;46.70;99343.78;5027316;28;20114;-76
2022/03/31 02:40:06;;;;;;;38.78;21.27;;;;;;;13.61;46.75;99349.28;5029460;28;20041;-76
2022/03/31 02:42:34;;;;;;;29.35;18.58;;;;;;;13.59;47.01;99348.47;5036560;28;20518;-75
2022/03/31 02:45:35;;;;;;;30.95;19.67;;;;;;;13.62;47.01;99364.19;5042513;28;20033;-76
2022/03/31 02:48:44;;;;;;;37.13;19.90;;;;;;;13.66;47.28;99365.81;5025071;28;20049;-75
2022/03/31 02:51:09;;;;;;;28.08;19.40;;;;;;;13.68;46.88;99355.25;5035467;28;20509;-75
2022/03/31 02:56:19;;;;;;;32.55;17.45;;;;;;;13.52;47.45;99342.50;5036040;28;20558;-75
2022/03/31 02:58:44;;;;;;;41.58;20.83;;;;;;;13.46;47.98;99352.34;5037794;28;20033;-75
2022/03/31 03:01:10;;;;;;;30.88;21.48;;;;;;;13.48;48.35;99346.13;5033319;28;20053;-75
2022/03/31 03:03:36;;;;;;;31.90;20.73;;;;;;;13.36;49.06;99356.19;5035841;28;20040;-74
2022/03/31 03:06:02;;;;;;;23.75;18.98;;;;;;;13.37;49.41;99361.41;5029381;28;20084;-74
2022/03/31 03:08:28;;;;;;;28.73;21.10;;;;;;;13.37;49.32;99364.03;5009182;28;20128;-74
2022/03/31 03:10:54;;;;;;;30.98;19.33;;;;;;;13.42;49.61;99370.03;5038740;28;20052;-74
2022/03/31 03:13:20;;;;;;;32.75;19.63;;;;;;;13.36;50.10;99364.94;5037949;28;20046;-75
2022/03/31 03:15:48;;;;;;;28.25;18.40;;;;;;;13.43;50.71;99368.25;5037262;28;20567;-75
2022/03/31 03:18:15;;;;;;;31.80;18.48;;;;;;;13.53;50.47;99348.63;5060580;28;20048;-74
2022/03/31 03:20:41;;;;;;;26.73;18.83;;;;;;;13.52;51.13;99360.09;5032540;28;20041;-73
2022/03/31 03:23:06;;;;;;;30.95;17.98;;;;;;;13.60;50.90;99367.78;5040036;28;20551;-74
2022/03/31 03:25:32;;;;;;;25.95;17.13;;;;;;;13.44;51.44;99347.16;5044378;28;20112;-76
2022/03/31 03:27:59;;;;;;;35.28;17.98;;;;;;;13.51;51.11;99363.66;5040469;28;20035;-74
2022/03/31 03:30:25;;;;;;;42.53;18.17;;;;;;;13.56;51.29;99368.78;5046355;28;20461;-75
2022/03/31 03:32:50;;;;;;;33.78;18.35;;;;;;;13.58;51.51;99380.13;5053291;28;20041;-75
2022/03/31 03:35:16;;;;;;;37.42;18.92;;;;;;;13.67;51.29;99383.38;5044950;28;20131;-75
2022/03/31 03:37:45;;;;;;;28.95;17.40;;;;;;;13.51;51.75;99384.75;5048105;28;20045;-75
2022/03/31 03:40:13;;;;;;;33.25;17.25;;;;;;;13.58;52.06;99375.75;5035528;28;20057;-75
2022/03/31 03:42:39;;;;;;;21.70;14.95;;;;;;;13.60;52.06;99383.59;5072205;28;20028;-74
2022/03/31 03:45:06;;;;;;;25.65;18.23;;;;;;;13.57;52.35;99366.09;5063687;28;20045;-75
2022/03/31 03:47:32;;;;;;;22.15;14.95;;;;;;;13.57;52.33;99360.81;5059178;28;20033;-75
2022/03/31 03:49:58;;;;;;;23.65;15.50;;;;;;;13.54;52.80;99366.19;5062580;28;20056;-75
2022/03/31 03:52:23;;;;;;;30.48;15.55;;;;;;;13.66;52.51;99363.19;5064542;28;21973;-75
2022/03/31 03:54:50;;;;;;;29.95;14.65;;;;;;;13.69;52.78;99351.69;5060866;28;20093;-75
2022/03/31 03:57:17;;;;;;;35.25;14.90;;;;;;;13.75;52.67;99359.44;5061923;28;20068;-75
2022/03/31 03:59:43;;;;;;;27.13;15.45;;;;;;;13.66;52.91;99370.25;5050459;28;20099;-75
2022/03/31 04:02:08;;;;;;;28.58;15.50;;;;;;;13.81;52.94;99355.72;5050273;28;20384;-75
2022/03/31 04:04:34;;;;;;;24.88;14.50;;;;;;;13.72;52.85;99370.94;5055146;28;20457;-74
2022/03/31 04:06:59;;;;;;;33.63;17.40;;;;;;;13.70;53.29;99356.06;5066184;28;20473;-75
2022/03/31 04:09:25;;;;;;;44.40;15.50;;;;;;;13.72;53.08;99360.38;5055882;28;20029;-75
2022/03/31 04:11:51;;;;;;;24.20;13.93;;;;;;;13.82;53.28;99368.88;5067318;28;20530;-75
2022/03/31 04:14:18;;;;;;;31.33;16.77;;;;;;;13.74;53.79;99360.31;5050158;28;20039;-75
2022/03/31 04:16:44;;;;;;;28.15;16.33;;;;;;;13.72;53.54;99352.47;5051359;28;20501;-75
2022/03/31 04:19:15;;;;;;;24.60;14.80;;;;;;;13.65;53.40;99366.75;5050094;28;20028;-75
2022/03/31 04:22:04;;;;;;;27.88;14.27;;;;;;;13.80;52.92;99354.88;5045968;28;20036;-75
2022/03/31 04:24:29;;;;;;;34.78;13.32;;;;;;;13.89;52.84;99349.31;5029546;28;20171;-75
2022/03/31 04:26:55;;;;;;;25.95;14.90;;;;;;;13.99;52.92;99359.59;5056453;28;20048;-75
2022/03/31 04:29:20;;;;;;;36.17;15.32;;;;;;;13.97;53.01;99338.53;5075121;28;20044;-75
2022/03/31 04:31:46;;;;;;;32.90;14.40;;;;;;;13.83;53.09;99319.63;5073096;28;20089;-74
2022/03/31 04:34:36;;;;;;;21.23;12.20;;;;;;;13.97;52.93;99346.44;5062524;28;20029;-76
2022/03/31 04:37:02;;;;;;;25.00;15.43;;;;;;;13.93;52.87;99329.84;5073254;28;20028;-76
2022/03/31 04:39:27;;;;;;;27.92;14.68;;;;;;;14.17;52.49;99342.31;5065596;28;20048;-77
2022/03/31 04:42:09;;;;;;;24.20;13.88;;;;;;;14.11;52.40;99336.31;5048950;28;20048;-77
2022/03/31 04:44:35;;;;;;;43.30;15.50;;;;;;;14.12;52.98;99350.38;5045882;28;20049;-77
2022/03/31 04:47:00;;;;;;;27.42;13.57;;;;;;;14.14;52.37;99348.53;5047996;28;20048;-76
2022/03/31 04:55:58;;;;;;;22.90;13.85;;;;;;;13.75;52.80;99345.38;5053924;28;20120;-76
2022/03/31 05:01:45;;;;;;;22.63;15.35;;;;;;;14.09;51.80;99343.44;5056212;28;20495;-76
2022/03/31 05:04:32;;;;;;;29.83;15.38;;;;;;;14.18;52.29;99350.16;5074618;28;20052;-76
2022/03/31 05:07:13;;;;;;;20.73;14.30;;;;;;;14.15;52.01;99355.56;5034119;28;20144;-76
2022/03/31 05:17:04;;;;;;;35.45;15.52;;;;;;;14.12;52.83;99347.75;5050178;28;20082;-77
2022/03/31 05:23:44;;;;;;;24.15;13.77;;;;;;;14.42;51.95;99348.53;5051439;28;20055;-77
2022/03/31 05:26:10;;;;;;;34.78;16.05;;;;;;;14.32;52.34;99344.47;5044539;28;20072;-77
2022/03/31 05:28:35;;;;;;;40.05;15.82;;;;;;;14.42;51.78;99345.91;5046808;28;20139;-77
2022/03/31 05:34:22;;;;;;;27.88;15.73;;;;;;;14.65;51.66;99331.06;5042167;28;20520;-75
2022/03/31 05:36:48;;;;;;;26.75;14.75;;;;;;;14.50;51.69;99320.09;5026272;28;20108;-78
2022/03/31 05:39:15;;;;;;;32.53;15.65;;;;;;;14.45;51.80;99322.03;5046898;28;20045;-77
2022/03/31 05:41:40;;;;;;;26.08;15.98;;;;;;;14.56;51.39;99314.66;5053218;28;20048;-77
2022/03/31 05:44:06;;;;;;;33.88;16.92;;;;;;;14.68;50.69;99325.69;5034141;28;20124;-75
2022/03/31 05:46:31;;;;;;;26.35;15.50;;;;;;;14.78;50.83;99327.13;5050781;28;20432;-76
2022/03/31 05:48:57;;;;;;;29.63;15.07;;;;;;;14.90;50.65;99324.03;5050825;28;20452;-76
2022/03/31 05:51:22;;;;;;;33.45;15.10;;;;;;;14.91;50.37;99325.78;5046590;28;20024;-75
2022/03/31 05:53:48;;;;;;;23.20;14.18;;;;;;;15.05;50.16;99333.19;5042265;28;20040;-76
2022/03/31 05:56:13;;;;;;;20.50;12.88;;;;;;;14.91;50.65;99332.81;5050912;28;20037;-76
2022/03/31 05:58:39;;;;;;;26.20;16.15;;;;;;;15.13;50.04;99331.16;5050581;28;20035;-76
2022/03/31 06:07:59;;;;;;;31.08;13.88;;;;;;;15.20;49.35;99334.44;5038168;28;20534;-76
2022/03/31 06:10:37;;;;;;;23.90;13.85;;;;;;;15.26;49.88;99322.75;5044676;28;20124;-76
2022/03/31 06:13:03;;;;;;;30.23;14.40;;;;;;;15.22;49.38;99324.66;5048381;28;20029;-76
2022/03/31 06:15:28;;;;;;;29.60;15.02;;;;;;;15.11;49.30;99325.03;5047879;28;20033;-75
2022/03/31 06:17:54;;;;;;;32.67;15.02;;;;;;;15.05;49.28;99314.69;5050652;28;20045;-76
2022/03/31 06:20:19;;;;;;;37.05;13.50;;;;;;;15.30;48.98;99341.09;5053083;28;20449;-76
2022/03/31 06:22:49;;;;;;;29.05;15.63;;;;;;;15.36;48.53;99340.88;5046761;28;20401;-76
2022/03/31 06:25:17;;;;;;;29.20;14.50;;;;;;;15.29;48.68;99343.78;5037542;28;20472;-76
2022/03/31 06:27:45;;;;;;;26.77;14.23;;;;;;;15.36;48.49;99340.03;5029896;28;20029;-76
2022/03/31 06:30:13;;;;;;;30.80;13.05;;;;;;;15.39;48.24;99350.47;5043898;28;20045;-76
2022/03/31 06:32:39;;;;;;;29.75;14.52;;;;;;;15.57;48.00;99355.09;5043045;28;20041;-76
2022/03/31 06:35:05;;;;;;;19.23;13.05;;;;;;;15.53;47.17;99356.09;5046853;28;20110;-76
2022/03/31 06:37:31;;;;;;;19.38;11.18;;;;;;;15.55;47.43;99364.84;5046776;28;20044;-77
2022/03/31 06:39:57;;;;;;;22.73;11.57;;;;;;;15.82;46.94;99356.81;5056324;28;20041;-75
2022/03/31 06:42:22;;;;;;;21.83;11.52;;;;;;;15.97;46.88;99347.44;5030643;28;20056;-76
2022/03/31 06:44:48;;;;;;;20.00;11.55;;;;;;;16.09;46.24;99346.09;5046270;28;20419;-77
2022/03/31 06:47:13;;;;;;;33.33;13.38;;;;;;;16.07;46.38;99345.28;5043960;28;20044;-76
2022/03/31 06:49:39;;;;;;;25.75;11.15;;;;;;;16.21;46.49;99348.25;5038970;28;20045;-77
2022/03/31 06:52:05;;;;;;;23.13;11.77;;;;;;;16.21;46.15;99338.50;5041735;28;20449;-80
2022/03/31 06:58:38;;;;;;;18.58;11.10;;;;;;;16.30;46.01;99353.16;5029007;28;20040;-79
2022/03/31 07:04:59;;;;;;;32.80;14.18;;;;;;;16.33;46.37;99352.19;5047535;28;20055;-80
2022/03/31 07:07:25;;;;;;;21.92;13.10;;;;;;;16.35;45.62;99347.69;5037533;28;20040;-80
2022/03/31 07:09:51;;;;;;;27.25;12.60;;;;;;;16.46;45.30;99358.69;5044712;28;20025;-80
2022/03/31 07:12:17;;;;;;;18.33;12.52;;;;;;;16.58;45.25;99358.19;5044488;28;20055;-80
2022/03/31 07:14:43;;;;;;;19.83;12.68;;;;;;;16.47;45.57;99352.47;5043311;28;20045;-78
2022/03/31 07:17:10;;;;;;;27.77;13.52;;;;;;;16.61;45.54;99358.06;5047353;28;20079;-76
2022/03/31 07:19:35;;;;;;;22.40;10.60;;;;;;;16.61;45.55;99358.06;5048782;28;20503;-77
2022/03/31 07:22:04;;;;;;;32.58;12.48;;;;;;;16.73;45.47;99363.75;5054597;28;20107;-76
2022/03/31 07:24:29;;;;;;;26.85;12.70;;;;;;;16.51;45.42;99369.97;5043546;28;20028;-75
2022/03/31 07:26:55;;;;;;;23.58;10.57;;;;;;;16.20;45.32;99368.56;5041680;28;20045;-76
2022/03/31 07:29:20;;;;;;;30.63;12.65;;;;;;;16.49;45.49;99365.66;5046113;28;20040;-75
2022/03/31 07:32:33;;;;;;;21.35;11.40;;;;;;;16.52;45.21;99368.16;5049148;28;20047;-75
2022/03/31 07:35:00;;;;;;;18.45;10.63;;;;;;;16.58;44.86;99371.44;5048597;28;20048;-75
2022/03/31 07:37:26;;;;;;;17.13;10.02;;;;;;;16.51;45.08;99363.81;5052076;28;20064;-74
2022/03/31 07:39:51;;;;;;;20.30;10.80;;;;;;;16.40;45.40;99374.81;5053838;28;20039;-76
2022/03/31 07:42:17;;;;;;;22.00;9.98;;;;;;;16.51;45.48;99379.69;5059078;28;20163;-77
2022/03/31 07:44:43;;;;;;;17.48;10.02;;;;;;;16.63;45.02;99381.84;5073842;28;20526;-75
2022/03/31 07:47:08;;;;;;;21.80;10.25;;;;;;;16.72;45.12;99381.44;5073024;28;20056;-77
2022/03/31 07:49:35;;;;;;;20.38;9.57;;;;;;;16.56;45.06;99386.50;5072088;28;20048;-74
2022/03/31 07:52:01;;;;;;;27.42;11.25;;;;;;;16.63;45.08;99384.47;5067391;28;20512;-76
2022/03/31 07:54:27;;;;;;;17.75;8.60;;;;;;;16.58;45.12;99384.66;5073702;28;20085;-76
2022/03/31 07:56:53;;;;;;;17.88;9.85;;;;;;;16.51;44.93;99391.16;5059904;28;20043;-75
2022/03/31 07:59:23;;;;;;;27.48;10.00;;;;;;;16.66;44.96;99387.00;5068455;28;20333;-72
2022/03/31 08:01:49;;;;;;;19.52;10.38;;;;;;;16.88;44.74;99395.81;5077764;28;20048;-74
2022/03/31 08:04:16;;;;;;;23.83;11.60;;;;;;;17.20;44.39;99390.91;5069948;28;20033;-73
2022/03/31 08:07:22;;;;;;;43.38;9.75;;;;;;;17.25;44.23;99396.84;5036517;28;20535;-74
2022/03/31 08:10:41;;;;;;;16.90;10.80;;;;;;;17.51;43.70;99389.53;5067633;28;20468;-75
2022/03/31 08:13:08;;;;;;;32.67;20.92;;;;;;;18.11;43.30;99390.31;5053202;28;20032;-76
2022/03/31 08:15:34;;;;;;;35.80;17.70;;;;;;;18.31;43.29;99375.25;5053770;28;20511;-74
2022/03/31 08:17:59;;;;;;;39.53;27.90;;;;;;;18.30;42.57;99386.78;5053335;28;20056;-74
2022/03/31 08:23:46;;;;;;;41.45;14.35;;;;;;;18.34;42.80;99367.13;5069670;28;20380;-73
2022/03/31 08:26:12;;;;;;;24.80;11.63;;;;;;;18.58;42.04;99358.88;5069189;28;20049;-75
2022/03/31 08:28:37;;;;;;;36.58;12.93;;;;;;;18.68;41.96;99374.31;5075963;28;20040;-75
2022/03/31 08:31:03;;;;;;;37.83;12.27;;;;;;;18.64;41.72;99375.38;5075269;28;20028;-75
2022/03/31 08:33:28;;;;;;;46.67;13.40;;;;;;;18.79;41.36;99367.59;5073188;28;20038;-75
2022/03/31 08:35:54;;;;;;;24.48;12.65;;;;;;;18.96;41.58;99372.91;5073101;28;20044;-76
2022/03/31 08:45:04;;;;;;;36.75;17.20;;;;;;;18.84;41.97;99373.53;5053973;28;20048;-75
2022/03/31 08:47:30;;;;;;;32.10;17.52;;;;;;;19.11;41.86;99371.28;5067386;28;20130;-74
2022/03/31 08:49:57;;;;;;;24.65;13.18;;;;;;;18.93;41.88;99360.63;5058058;28;20077;-74
2022/03/31 08:52:24;;;;;;;31.73;13.88;;;;;;;18.68;41.90;99350.38;5055395;28;20067;-75
2022/03/31 08:55:35;;;;;;;28.25;12.57;;;;;;;18.88;41.38;99370.66;5074986;28;20020;-75
2022/03/31 08:58:02;;;;;;;25.55;12.07;;;;;;;18.83;41.47;99350.56;5053918;28;20059;-74
2022/03/31 09:00:27;;;;;;;17.65;10.43;;;;;;;18.61;42.01;99348.94;5067509;28;20060;-74
2022/03/31 09:03:04;;;;;;;19.98;11.93;;;;;;;18.65;41.79;99357.63;5049291;28;20098;-75
2022/03/31 09:09:04;;;;;;;26.63;9.85;;;;;;;19.42;41.57;99349.22;5038900;28;20376;-74
2022/03/31 09:11:35;;;;;;;24.08;10.45;;;;;;;19.30;40.49;99356.06;5053864;28;20101;-74
2022/03/31 09:14:04;;;;;;;20.65;8.88;;;;;;;19.28;40.74;99341.13;5072207;28;20041;-74
2022/03/31 09:16:38;;;;;;;18.40;9.25;;;;;;;19.02;41.62;99335.38;5071484;28;20041;-74
2022/03/31 09:19:11;;;;;;;15.95;9.60;;;;;;;19.33;41.05;99333.75;5063170;28;20425;-73
2022/03/31 09:21:48;;;;;;;;;;;;;;;19.00;41.90;99325.78;5065295;28;20070;-74
2022/03/31 09:24:15;;;;;;;17.27;9.30;;;;;;;19.15;41.14;99306.34;5071127;28;19916;-75
2022/03/31 09:26:45;;;;;;;25.75;9.75;;;;;;;19.36;41.00;99304.31;5061350;28;20037;-74
2022/03/31 09:32:32;;;;;;;25.48;9.85;;;;;;;19.23;41.73;99303.28;5076616;28;20185;-80
2022/03/31 09:35:05;;;;;;;21.33;10.07;;;;;;;19.34;40.97;99298.25;5088534;28;20512;-79
2022/03/31 09:37:31;;;;;;;31.38;9.68;;;;;;;19.23;41.10;99301.47;5070121;28;20032;-79
2022/03/31 09:46:42;;;;;;;29.63;10.63;;;;;;;19.66;38.90;99277.00;5051843;28;20495;-79
2022/03/31 09:49:21;;;;;;;38.58;9.73;;;;;;;19.89;38.96;99295.22;5053791;28;20021;-79
2022/03/31 09:51:52;;;;;;;17.55;8.38;;;;;;;20.21;38.65;99297.88;5050306;28;20079;-80
2022/03/31 09:54:36;;;;;;;18.17;9.32;;;;;;;20.24;37.03;99303.00;5031615;28;20041;-80
2022/03/31 10:00:24;;;;;;;20.33;6.93;;;;;;;20.28;37.31;99283.25;5053857;28;20082;-78
2022/03/31 10:02:50;;;;;;;26.15;8.88;;;;;;;20.32;36.64;99279.47;5036321;28;20136;-78
2022/03/31 10:05:18;;;;;;;19.08;7.95;;;;;;;20.24;36.96;99279.03;5045053;28;20037;-78
2022/03/31 10:08:12;;;;;;;26.52;9.85;;;;;;;20.26;37.16;99285.13;5045786;28;20091;-78
2022/03/31 10:14:24;;;;;;;24.98;8.57;;;;;;;20.82;37.55;99275.59;5050664;28;20043;-79
2022/03/31 10:16:54;;;;;;;30.10;8.95;;;;;;;20.79;36.02;99266.94;5033849;28;20178;-78
2022/03/31 10:19:37;;;;;;;25.50;8.80;;;;;;;21.13;35.67;99263.06;5048197;28;20044;-79
2022/03/31 10:25:52;;;;;;;13.63;6.82;;;;;;;21.52;35.89;99271.34;5037171;28;20052;-78
2022/03/31 10:28:39;;;;;;;20.52;8.18;;;;;;;20.85;36.72;99267.41;5042650;28;20083;-77
2022/03/31 10:41:29;;;;;;;26.17;7.38;;;;;;;20.61;37.04;99268.91;5030280;28;20054;-76
2022/03/31 10:43:58;;;;;;;17.02;6.28;;;;;;;20.60;37.28;99275.16;5046396;28;20043;-76
2022/03/31 10:46:25;;;;;;;24.30;8.20;;;;;;;20.68;37.80;99256.06;5045779;28;20060;-77
2022/03/31 10:48:58;;;;;;;33.45;7.40;;;;;;;20.66;37.32;99253.50;5040967;28;20059;-76
2022/03/31 10:51:37;;;;;;;17.35;7.20;;;;;;;20.43;38.20;99247.69;5048210;28;20059;-77
2022/03/31 10:54:05;;;;;;;13.48;7.43;;;;;;;21.62;39.22;99249.31;5035023;28;20110;-73
2022/03/31 10:56:32;;;;;;;20.98;7.82;;;;;;;21.96;37.92;99247.13;5044643;28;20477;-72
2022/03/31 10:59:00;;;;;;;17.40;7.25;;;;;;;21.87;37.28;99237.06;5044464;28;20041;-73
2022/03/31 11:01:31;;;;;;;10.60;6.53;;;;;;;21.64;38.31;99238.53;5045305;28;20041;-73
2022/03/31 11:04:15;;;;;;;17.75;6.97;;;;;;;21.66;36.50;99232.16;5047033;28;20027;-73
2022/03/31 11:17:14;;;;;;;15.48;8.98;;;;;;;21.61;36.90;99220.03;5056083;28;20051;-73
2022/03/31 11:30:32;;;;;;;25.98;8.73;;;;;;;20.94;37.60;99215.34;5047658;28;20128;-73
2022/03/31 11:32:58;;;;;;;28.02;8.00;;;;;;;21.58;36.83;99212.22;5024090;28;20072;-72
2022/03/31 11:35:28;;;;;;;19.25;6.97;;;;;;;21.57;36.99;99218.53;5044145;28;20493;-75
2022/03/31 11:38:00;;;;;;;16.33;7.50;;;;;;;21.83;36.61;99208.81;5039436;28;20179;-75
2022/03/31 11:40:38;;;;;;;23.60;7.03;;;;;;;20.82;37.21;99200.94;5050587;28;20072;-73
2022/03/31 11:46:26;;;;;;;17.92;6.70;;;;;;;20.72;37.62;99198.94;5025884;28;20559;-72
2022/03/31 11:49:46;;;;;;;25.30;7.72;;;;;;;20.55;37.42;99184.78;5023379;28;20517;-71
2022/03/31 11:52:12;;;;;;;30.60;8.43;;;;;;;20.36;36.54;99169.06;5028596;28;20041;-72
2022/03/31 11:54:39;;;;;;;23.05;6.30;;;;;;;20.43;37.00;99165.06;5015633;28;20393;-72
2022/03/31 11:57:11;;;;;;;22.75;7.35;;;;;;;20.80;36.82;99168.19;5035228;28;20128;-72
2022/03/31 12:03:06;;;;;;;18.70;5.80;;;;;;;20.81;36.86;99163.69;5035001;28;20048;-72
2022/03/31 12:05:31;;;;;;;17.80;7.07;;;;;;;20.73;36.79;99163.34;5012152;28;20053;-72
2022/03/31 12:07:59;;;;;;;16.13;5.50;;;;;;;20.88;37.33;99175.69;5041339;28;20112;-72
2022/03/31 12:10:25;;;;;;;23.67;5.93;;;;;;;20.67;37.87;99156.56;5031469;28;20071;-72
2022/03/31 12:12:53;;;;;;;16.73;5.43;;;;;;;20.89;37.77;99141.91;5034915;28;20029;-71
2022/03/31 12:15:29;;;;;;;13.60;5.13;;;;;;;20.92;37.51;99133.72;5015847;28;20037;-71
2022/03/31 12:21:16;;;;;;;21.67;5.50;;;;;;;21.16;37.52;99139.28;5033769;28;20095;-72
2022/03/31 12:23:45;;;;;;;26.48;4.43;;;;;;;21.28;37.36;99134.03;5034929;28;21062;-72
2022/03/31 12:26:18;;;;;;;20.27;4.68;;;;;;;21.25;37.77;99138.69;5030096;28;20041;-72
2022/03/31 12:28:45;;;;;;;19.45;6.07;;;;;;;21.48;37.81;99145.25;5040243;28;20061;-72
2022/03/31 12:31:26;;;;;;;17.15;5.65;;;;;;;20.86;37.78;99142.94;5033649;28;20528;-72
2022/03/31 12:33:52;;;;;;;20.75;5.68;;;;;;;21.02;38.12;99146.34;5032394;28;20033;-71
2022/03/31 12:39:43;;;;;;;19.10;5.28;;;;;;;21.01;38.75;99149.13;5020393;28;20056;-72
2022/03/31 12:42:10;;;;;;;16.50;5.95;;;;;;;21.05;38.51;99145.31;5033109;28;20037;-73
2022/03/31 12:44:41;;;;;;;17.42;5.07;;;;;;;21.21;38.24;99155.84;5029538;28;20038;-73
2022/03/31 12:51:07;;;;;;;16.13;5.07;;;;;;;21.49;38.34;99139.81;5044152;28;20161;-72
2022/03/31 12:57:32;;;;;;;15.55;5.90;;;;;;;21.27;38.91;99132.31;5040201;28;20053;-72
2022/03/31 13:00:00;;;;;;;19.10;5.90;;;;;;;21.16;39.02;99123.28;5041034;28;20052;-72
2022/03/31 13:02:26;;;;;;;20.38;6.32;;;;;;;21.08;39.41;99113.09;5057676;28;20132;-72
2022/03/31 13:04:51;;;;;;;15.00;6.57;;;;;;;21.25;39.35;99120.03;5052536;28;20171;-72
2022/03/31 13:07:19;;;;;;;33.90;6.68;;;;;;;21.06;39.13;99118.53;5047375;28;20064;-72
2022/03/31 13:09:49;;;;;;;21.50;5.55;;;;;;;20.95;39.82;99128.19;5049218;28;20499;-72
2022/03/31 13:12:15;;;;;;;19.65;5.57;;;;;;;20.97;39.90;99131.59;5049791;28;20388;-71
2022/03/31 13:14:43;;;;;;;17.83;5.40;;;;;;;20.87;39.93;99129.53;5050309;28;20116;-72
2022/03/31 13:17:12;;;;;;;33.42;7.53;;;;;;;21.13;39.76;99137.69;5048119;28;20037;-72
2022/03/31 13:19:38;;;;;;;26.70;6.38;;;;;;;21.10;39.74;99129.88;5049047;28;20061;-72
2022/03/31 13:26:04;;;;;;;23.40;7.03;;;;;;;21.03;39.80;99141.91;5050118;28;20052;-71
2022/03/31 13:29:04;;;;;;;19.08;5.93;;;;;;;20.91;40.34;99132.88;5047225;28;20040;-72
2022/03/31 13:34:52;;;;;;;29.75;8.18;;;;;;;20.61;41.37;99120.50;5044367;28;20098;-72
2022/03/31 13:37:21;;;;;;;18.92;5.68;;;;;;;20.60;41.01;99118.78;5042887;28;20037;-72
2022/03/31 13:39:49;;;;;;;36.10;7.65;;;;;;;20.71;41.09;99120.78;5049822;28;20144;-72
2022/03/31 13:42:15;;;;;;;22.52;6.28;;;;;;;20.78;41.09;99108.75;5047191;28;20626;-73
2022/03/31 13:44:42;;;;;;;27.50;8.60;;;;;;;20.70;40.78;99087.09;5050889;28;20064;-73
2022/03/31 13:47:08;;;;;;;27.35;6.40;;;;;;;20.81;41.21;99107.72;5052259;28;20052;-71
2022/03/31 13:49:35;;;;;;;25.55;8.13;;;;;;;20.73;41.04;99110.03;5044674;28;20044;-79
2022/03/31 13:52:05;;;;;;;20.98;6.47;;;;;;;20.63;41.43;99097.28;5048414;28;20475;-81
2022/03/31 13:54:34;;;;;;;31.63;7.20;;;;;;;20.56;41.89;99093.28;5046451;28;20028;-75
2022/03/31 13:57:00;;;;;;;15.70;4.43;;;;;;;20.47;41.57;99095.63;5046695;28;20102;-74
2022/03/31 14:02:11;;;;;;;29.92;7.07;;;;;;;20.29;42.23;99094.94;5049000;28;20106;-74
2022/03/31 14:04:38;;;;;;;19.13;6.60;;;;;;;20.06;42.03;99085.69;5056301;28;20040;-75